sensor_id;sensor_type;location;lat;lon;timestamp;P1;durP1;ratioP1;P2;durP2;ratioP2
27303;SDS011;14791;52.392;13.092;2023-05-02T00:00:15;3.75;;;3.65;;
27303;SDS011;14791;52.392;13.092;2023-05-02T00:02:44;3.83;;;3.52;;
27303;SDS011;14791;52.392;13.092;2023-05-02T00:05:13;3.47;;;3.27;;
27303;SDS011;14791;52.392;13.092;2023-05-02T00:07:42;3.45;;;3.35;;
27303;SDS011;14791;52.392;13.092;2023-05-02T00:10:11;3.70;;;3.60;;
27303;SDS011;14791;52.392;13.092;2023-05-02T00:12:40;3.52;;;3.42;;
27303;SDS011;14791;52.392;13.092;2023-05-02T00:15:09;3.37;;;3.22;;
27303;SDS011;14791;52.392;13.092;2023-05-02T00:17:41;3.27;;;3.17;;
27303;SDS011;14791;52.392;13.092;2023-05-02T00:20:10;3.67;;;3.47;;
27303;SDS011;14791;52.392;13.092;2023-05-02T00:22:39;3.57;;;3.40;;
27303;SDS011;14791;52.392;13.092;2023-05-02T00:25:08;4.05;;;3.80;;
27303;SDS011;14791;52.392;13.092;2023-05-02T00:27:39;3.55;;;3.45;;
27303;SDS011;14791;52.392;13.092;2023-05-02T00:30:08;3.50;;;3.40;;
27303;SDS011;14791;52.392;13.092;2023-05-02T00:32:37;3.65;;;3.55;;
27303;SDS011;14791;52.392;13.092;2023-05-02T00:35:06;3.65;;;3.55;;
27303;SDS011;14791;52.392;13.092;2023-05-02T00:37:36;3.98;;;3.80;;
27303;SDS011;14791;52.392;13.092;2023-05-02T00:40:06;3.70;;;3.58;;
27303;SDS011;14791;52.392;13.092;2023-05-02T00:42:35;3.70;;;3.50;;
27303;SDS011;14791;52.392;13.092;2023-05-02T00:45:04;3.35;;;3.25;;
27303;SDS011;14791;52.392;13.092;2023-05-02T00:47:34;3.13;;;3.03;;
27303;SDS011;14791;52.392;13.092;2023-05-02T00:50:03;3.50;;;3.40;;
27303;SDS011;14791;52.392;13.092;2023-05-02T00:52:33;3.75;;;3.55;;
27303;SDS011;14791;52.392;13.092;2023-05-02T00:55:02;3.50;;;3.30;;
27303;SDS011;14791;52.392;13.092;2023-05-02T00:57:31;3.50;;;3.40;;
27303;SDS011;14791;52.392;13.092;2023-05-02T01:00:01;3.20;;;3.00;;
27303;SDS011;14791;52.392;13.092;2023-05-02T01:02:47;3.30;;;3.20;;
27303;SDS011;14791;52.392;13.092;2023-05-02T01:05:16;3.52;;;3.42;;
27303;SDS011;14791;52.392;13.092;2023-05-02T01:08:02;3.70;;;3.47;;
27303;SDS011;14791;52.392;13.092;2023-05-02T01:13:21;3.63;;;3.43;;
27303;SDS011;14791;52.392;13.092;2023-05-02T01:15:53;3.27;;;3.08;;
27303;SDS011;14791;52.392;13.092;2023-05-02T01:18:25;3.63;;;3.43;;
27303;SDS011;14791;52.392;13.092;2023-05-02T01:21:01;3.40;;;3.27;;
27303;SDS011;14791;52.392;13.092;2023-05-02T01:26:31;3.70;;;3.40;;
27303;SDS011;14791;52.392;13.092;2023-05-02T01:29:04;3.10;;;3.00;;
27303;SDS011;14791;52.392;13.092;2023-05-02T01:31:35;3.00;;;2.90;;
27303;SDS011;14791;52.392;13.092;2023-05-02T01:34:09;3.22;;;3.05;;
27303;SDS011;14791;52.392;13.092;2023-05-02T01:36:43;3.53;;;3.33;;
27303;SDS011;14791;52.392;13.092;2023-05-02T01:39:15;3.22;;;3.02;;
27303;SDS011;14791;52.392;13.092;2023-05-02T01:41:49;3.13;;;3.03;;
27303;SDS011;14791;52.392;13.092;2023-05-02T01:44:21;3.58;;;3.45;;
27303;SDS011;14791;52.392;13.092;2023-05-02T01:46:51;3.37;;;3.27;;
27303;SDS011;14791;52.392;13.092;2023-05-02T01:49:23;3.10;;;2.90;;
27303;SDS011;14791;52.392;13.092;2023-05-02T01:51:53;3.42;;;3.17;;
27303;SDS011;14791;52.392;13.092;2023-05-02T01:54:25;3.17;;;3.08;;
27303;SDS011;14791;52.392;13.092;2023-05-02T01:56:55;2.92;;;2.80;;
27303;SDS011;14791;52.392;13.092;2023-05-02T01:59:25;3.17;;;3.08;;
27303;SDS011;14791;52.392;13.092;2023-05-02T02:01:56;3.30;;;3.10;;
27303;SDS011;14791;52.392;13.092;2023-05-02T02:04:28;2.97;;;2.87;;
27303;SDS011;14791;52.392;13.092;2023-05-02T02:07:02;3.30;;;3.17;;
27303;SDS011;14791;52.392;13.092;2023-05-02T02:09:33;3.27;;;3.07;;
27303;SDS011;14791;52.392;13.092;2023-05-02T02:12:15;2.80;;;2.70;;
27303;SDS011;14791;52.392;13.092;2023-05-02T02:14:48;3.30;;;3.10;;
27303;SDS011;14791;52.392;13.092;2023-05-02T02:17:24;2.95;;;2.85;;
27303;SDS011;14791;52.392;13.092;2023-05-02T02:19:52;2.97;;;2.77;;
27303;SDS011;14791;52.392;13.092;2023-05-02T02:22:23;2.77;;;2.67;;
27303;SDS011;14791;52.392;13.092;2023-05-02T02:24:54;3.10;;;2.90;;
27303;SDS011;14791;52.392;13.092;2023-05-02T02:27:26;2.40;;;2.27;;
27303;SDS011;14791;52.392;13.092;2023-05-02T02:29:55;2.80;;;2.60;;
27303;SDS011;14791;52.392;13.092;2023-05-02T02:32:24;2.43;;;2.23;;
27303;SDS011;14791;52.392;13.092;2023-05-02T02:34:53;2.63;;;2.53;;
27303;SDS011;14791;52.392;13.092;2023-05-02T02:37:25;2.50;;;2.40;;
27303;SDS011;14791;52.392;13.092;2023-05-02T02:39:56;2.23;;;2.13;;
27303;SDS011;14791;52.392;13.092;2023-05-02T02:42:31;2.47;;;2.33;;
27303;SDS011;14791;52.392;13.092;2023-05-02T02:53:46;2.00;;;2.00;;
27303;SDS011;14791;52.392;13.092;2023-05-02T02:56:18;2.50;;;2.40;;
27303;SDS011;14791;52.392;13.092;2023-05-02T03:01:29;2.10;;;1.92;;
27303;SDS011;14791;52.392;13.092;2023-05-02T03:03:59;1.98;;;1.87;;
27303;SDS011;14791;52.392;13.092;2023-05-02T03:06:30;2.10;;;2.00;;
27303;SDS011;14791;52.392;13.092;2023-05-02T03:09:00;1.87;;;1.80;;
27303;SDS011;14791;52.392;13.092;2023-05-02T03:11:30;2.20;;;2.10;;
27303;SDS011;14791;52.392;13.092;2023-05-02T03:13:59;2.10;;;1.90;;
27303;SDS011;14791;52.392;13.092;2023-05-02T03:16:30;1.87;;;1.87;;
27303;SDS011;14791;52.392;13.092;2023-05-02T03:19:04;1.57;;;1.57;;
27303;SDS011;14791;52.392;13.092;2023-05-02T03:21:34;2.60;;;1.57;;
27303;SDS011;14791;52.392;13.092;2023-05-02T03:24:08;1.83;;;1.73;;
27303;SDS011;14791;52.392;13.092;2023-05-02T03:26:38;1.93;;;1.83;;
27303;SDS011;14791;52.392;13.092;2023-05-02T03:29:07;1.70;;;1.60;;
27303;SDS011;14791;52.392;13.092;2023-05-02T03:31:38;1.83;;;1.73;;
27303;SDS011;14791;52.392;13.092;2023-05-02T03:34:07;1.63;;;1.60;;
27303;SDS011;14791;52.392;13.092;2023-05-02T03:36:36;1.73;;;1.73;;
27303;SDS011;14791;52.392;13.092;2023-05-02T03:39:05;1.90;;;1.73;;
27303;SDS011;14791;52.392;13.092;2023-05-02T03:41:35;1.70;;;1.70;;
27303;SDS011;14791;52.392;13.092;2023-05-02T03:44:05;1.60;;;1.50;;
27303;SDS011;14791;52.392;13.092;2023-05-02T03:46:34;1.80;;;1.70;;
27303;SDS011;14791;52.392;13.092;2023-05-02T03:49:04;2.22;;;1.87;;
27303;SDS011;14791;52.392;13.092;2023-05-02T03:51:34;1.83;;;1.73;;
27303;SDS011;14791;52.392;13.092;2023-05-02T03:54:03;2.20;;;2.10;;
27303;SDS011;14791;52.392;13.092;2023-05-02T03:56:34;1.83;;;1.83;;
27303;SDS011;14791;52.392;13.092;2023-05-02T03:59:08;2.07;;;1.97;;
27303;SDS011;14791;52.392;13.092;2023-05-02T04:01:38;1.43;;;1.43;;
27303;SDS011;14791;52.392;13.092;2023-05-02T04:04:08;1.80;;;1.80;;
27303;SDS011;14791;52.392;13.092;2023-05-02T04:06:39;1.60;;;1.60;;
27303;SDS011;14791;52.392;13.092;2023-05-02T04:09:08;1.80;;;1.80;;
27303;SDS011;14791;52.392;13.092;2023-05-02T04:11:39;1.70;;;1.63;;
27303;SDS011;14791;52.392;13.092;2023-05-02T04:14:08;1.60;;;1.50;;
27303;SDS011;14791;52.392;13.092;2023-05-02T04:16:39;1.90;;;1.80;;
27303;SDS011;14791;52.392;13.092;2023-05-02T04:19:09;2.10;;;1.90;;
27303;SDS011;14791;52.392;13.092;2023-05-02T04:21:38;2.00;;;1.90;;
27303;SDS011;14791;52.392;13.092;2023-05-02T04:24:08;1.80;;;1.70;;
27303;SDS011;14791;52.392;13.092;2023-05-02T04:26:37;1.63;;;1.63;;
27303;SDS011;14791;52.392;13.092;2023-05-02T04:29:08;1.90;;;1.73;;
27303;SDS011;14791;52.392;13.092;2023-05-02T04:31:38;1.80;;;1.80;;
27303;SDS011;14791;52.392;13.092;2023-05-02T04:34:08;1.55;;;1.55;;
27303;SDS011;14791;52.392;13.092;2023-05-02T04:36:44;3.13;;;1.63;;
27303;SDS011;14791;52.392;13.092;2023-05-02T04:39:17;2.17;;;1.80;;
27303;SDS011;14791;52.392;13.092;2023-05-02T04:41:48;1.60;;;1.50;;
27303;SDS011;14791;52.392;13.092;2023-05-02T04:44:17;1.77;;;1.67;;
27303;SDS011;14791;52.392;13.092;2023-05-02T04:46:46;2.02;;;1.92;;
27303;SDS011;14791;52.392;13.092;2023-05-02T04:49:15;1.70;;;1.60;;
27303;SDS011;14791;52.392;13.092;2023-05-02T04:51:44;1.53;;;1.40;;
27303;SDS011;14791;52.392;13.092;2023-05-02T04:54:14;1.87;;;1.77;;
27303;SDS011;14791;52.392;13.092;2023-05-02T04:56:43;1.77;;;1.67;;
27303;SDS011;14791;52.392;13.092;2023-05-02T04:59:13;1.67;;;1.57;;
27303;SDS011;14791;52.392;13.092;2023-05-02T05:01:42;1.73;;;1.73;;
27303;SDS011;14791;52.392;13.092;2023-05-02T05:04:11;1.80;;;1.70;;
27303;SDS011;14791;52.392;13.092;2023-05-02T05:06:40;1.60;;;1.53;;
27303;SDS011;14791;52.392;13.092;2023-05-02T05:09:10;1.70;;;1.60;;
27303;SDS011;14791;52.392;13.092;2023-05-02T05:11:39;2.53;;;1.80;;
27303;SDS011;14791;52.392;13.092;2023-05-02T05:14:10;1.70;;;1.60;;
27303;SDS011;14791;52.392;13.092;2023-05-02T05:16:40;1.97;;;1.87;;
27303;SDS011;14791;52.392;13.092;2023-05-02T05:19:09;2.37;;;2.17;;
27303;SDS011;14791;52.392;13.092;2023-05-02T05:21:38;2.07;;;1.97;;
27303;SDS011;14791;52.392;13.092;2023-05-02T05:24:08;1.32;;;1.25;;
27303;SDS011;14791;52.392;13.092;2023-05-02T05:26:37;2.15;;;2.05;;
27303;SDS011;14791;52.392;13.092;2023-05-02T05:29:06;2.20;;;2.10;;
27303;SDS011;14791;52.392;13.092;2023-05-02T05:31:37;2.60;;;1.77;;
27303;SDS011;14791;52.392;13.092;2023-05-02T05:34:08;2.50;;;2.40;;
27303;SDS011;14791;52.392;13.092;2023-05-02T05:36:41;2.53;;;2.33;;
27303;SDS011;14791;52.392;13.092;2023-05-02T05:39:10;2.20;;;2.10;;
27303;SDS011;14791;52.392;13.092;2023-05-02T05:41:41;2.20;;;2.10;;
27303;SDS011;14791;52.392;13.092;2023-05-02T05:44:11;2.30;;;2.20;;
27303;SDS011;14791;52.392;13.092;2023-05-02T05:46:40;2.10;;;2.00;;
27303;SDS011;14791;52.392;13.092;2023-05-02T05:49:10;3.23;;;2.80;;
27303;SDS011;14791;52.392;13.092;2023-05-02T05:51:41;3.20;;;2.83;;
27303;SDS011;14791;52.392;13.092;2023-05-02T05:54:10;2.60;;;2.50;;
27303;SDS011;14791;52.392;13.092;2023-05-02T05:56:39;3.25;;;3.05;;
27303;SDS011;14791;52.392;13.092;2023-05-02T05:59:09;3.55;;;3.35;;
27303;SDS011;14791;52.392;13.092;2023-05-02T06:01:39;3.20;;;2.98;;
27303;SDS011;14791;52.392;13.092;2023-05-02T06:04:09;3.27;;;3.17;;
27303;SDS011;14791;52.392;13.092;2023-05-02T06:06:40;3.40;;;3.30;;
27303;SDS011;14791;52.392;13.092;2023-05-02T06:09:08;4.10;;;3.90;;
27303;SDS011;14791;52.392;13.092;2023-05-02T06:11:37;3.58;;;3.37;;
27303;SDS011;14791;52.392;13.092;2023-05-02T06:14:07;3.70;;;3.60;;
27303;SDS011;14791;52.392;13.092;2023-05-02T06:16:36;4.07;;;3.87;;
27303;SDS011;14791;52.392;13.092;2023-05-02T06:19:05;3.77;;;3.67;;
27303;SDS011;14791;52.392;13.092;2023-05-02T06:21:37;4.05;;;3.85;;
27303;SDS011;14791;52.392;13.092;2023-05-02T06:24:06;3.62;;;3.42;;
27303;SDS011;14791;52.392;13.092;2023-05-02T06:26:35;3.80;;;3.50;;
27303;SDS011;14791;52.392;13.092;2023-05-02T06:29:04;4.17;;;3.98;;
27303;SDS011;14791;52.392;13.092;2023-05-02T06:31:33;4.25;;;4.05;;
27303;SDS011;14791;52.392;13.092;2023-05-02T06:34:02;4.30;;;4.08;;
27303;SDS011;14791;52.392;13.092;2023-05-02T06:36:31;3.98;;;3.67;;
27303;SDS011;14791;52.392;13.092;2023-05-02T06:39:00;4.62;;;4.42;;
27303;SDS011;14791;52.392;13.092;2023-05-02T06:41:28;4.45;;;4.25;;
27303;SDS011;14791;52.392;13.092;2023-05-02T06:43:57;5.00;;;4.67;;
27303;SDS011;14791;52.392;13.092;2023-05-02T06:46:29;4.97;;;4.78;;
27303;SDS011;14791;52.392;13.092;2023-05-02T06:48:58;5.05;;;4.75;;
27303;SDS011;14791;52.392;13.092;2023-05-02T06:51:27;5.42;;;5.15;;
27303;SDS011;14791;52.392;13.092;2023-05-02T06:53:56;5.62;;;5.25;;
27303;SDS011;14791;52.392;13.092;2023-05-02T06:56:25;5.22;;;4.92;;
27303;SDS011;14791;52.392;13.092;2023-05-02T06:58:54;4.97;;;4.72;;
27303;SDS011;14791;52.392;13.092;2023-05-02T07:01:23;5.47;;;5.17;;
27303;SDS011;14791;52.392;13.092;2023-05-02T07:03:52;4.78;;;4.58;;
27303;SDS011;14791;52.392;13.092;2023-05-02T07:06:21;4.30;;;4.10;;
27303;SDS011;14791;52.392;13.092;2023-05-02T07:08:50;4.20;;;4.00;;
27303;SDS011;14791;52.392;13.092;2023-05-02T07:11:19;4.25;;;4.15;;
27303;SDS011;14791;52.392;13.092;2023-05-02T07:13:49;4.60;;;4.35;;
27303;SDS011;14791;52.392;13.092;2023-05-02T07:16:19;4.75;;;4.50;;
27303;SDS011;14791;52.392;13.092;2023-05-02T07:18:48;4.70;;;4.50;;
27303;SDS011;14791;52.392;13.092;2023-05-02T07:21:16;4.53;;;4.33;;
27303;SDS011;14791;52.392;13.092;2023-05-02T07:23:45;4.45;;;4.17;;
27303;SDS011;14791;52.392;13.092;2023-05-02T07:26:14;4.37;;;4.17;;
27303;SDS011;14791;52.392;13.092;2023-05-02T07:28:44;4.35;;;4.15;;
27303;SDS011;14791;52.392;13.092;2023-05-02T07:31:13;4.03;;;3.83;;
27303;SDS011;14791;52.392;13.092;2023-05-02T07:33:42;4.40;;;4.20;;
27303;SDS011;14791;52.392;13.092;2023-05-02T07:36:11;4.30;;;4.15;;
27303;SDS011;14791;52.392;13.092;2023-05-02T07:38:40;4.72;;;4.47;;
27303;SDS011;14791;52.392;13.092;2023-05-02T07:41:09;4.45;;;4.30;;
27303;SDS011;14791;52.392;13.092;2023-05-02T07:43:40;4.85;;;4.65;;
27303;SDS011;14791;52.392;13.092;2023-05-02T07:46:09;4.87;;;4.60;;
27303;SDS011;14791;52.392;13.092;2023-05-02T07:48:38;4.92;;;4.42;;
27303;SDS011;14791;52.392;13.092;2023-05-02T07:51:09;4.05;;;3.85;;
27303;SDS011;14791;52.392;13.092;2023-05-02T07:53:38;4.50;;;4.30;;
27303;SDS011;14791;52.392;13.092;2023-05-02T07:56:07;3.85;;;3.75;;
27303;SDS011;14791;52.392;13.092;2023-05-02T07:58:36;3.35;;;3.25;;
27303;SDS011;14791;52.392;13.092;2023-05-02T08:01:05;3.73;;;3.53;;
27303;SDS011;14791;52.392;13.092;2023-05-02T08:03:34;3.80;;;3.63;;
27303;SDS011;14791;52.392;13.092;2023-05-02T08:06:03;3.55;;;3.45;;
27303;SDS011;14791;52.392;13.092;2023-05-02T08:08:32;2.95;;;2.85;;
27303;SDS011;14791;52.392;13.092;2023-05-02T08:11:01;2.75;;;2.65;;
27303;SDS011;14791;52.392;13.092;2023-05-02T08:13:30;2.45;;;2.35;;
27303;SDS011;14791;52.392;13.092;2023-05-02T08:15:59;2.05;;;2.05;;
27303;SDS011;14791;52.392;13.092;2023-05-02T08:18:28;2.55;;;2.45;;
27303;SDS011;14791;52.392;13.092;2023-05-02T08:20:57;2.37;;;2.37;;
27303;SDS011;14791;52.392;13.092;2023-05-02T08:23:26;3.72;;;3.42;;
27303;SDS011;14791;52.392;13.092;2023-05-02T08:25:55;3.67;;;3.50;;
27303;SDS011;14791;52.392;13.092;2023-05-02T08:28:23;3.85;;;3.55;;
27303;SDS011;14791;52.392;13.092;2023-05-02T08:30:52;3.20;;;3.10;;
27303;SDS011;14791;52.392;13.092;2023-05-02T08:33:21;3.35;;;3.15;;
27303;SDS011;14791;52.392;13.092;2023-05-02T08:35:51;2.90;;;2.80;;
27303;SDS011;14791;52.392;13.092;2023-05-02T08:38:20;3.15;;;3.05;;
27303;SDS011;14791;52.392;13.092;2023-05-02T08:40:49;3.10;;;3.00;;
27303;SDS011;14791;52.392;13.092;2023-05-02T08:43:17;2.67;;;2.58;;
27303;SDS011;14791;52.392;13.092;2023-05-02T08:45:47;2.95;;;2.77;;
27303;SDS011;14791;52.392;13.092;2023-05-02T08:48:19;3.35;;;3.10;;
27303;SDS011;14791;52.392;13.092;2023-05-02T08:50:49;2.80;;;2.70;;
27303;SDS011;14791;52.392;13.092;2023-05-02T08:53:20;2.42;;;2.33;;
27303;SDS011;14791;52.392;13.092;2023-05-02T08:55:50;2.85;;;2.75;;
27303;SDS011;14791;52.392;13.092;2023-05-02T08:58:20;3.52;;;3.42;;
27303;SDS011;14791;52.392;13.092;2023-05-02T09:00:49;3.10;;;3.00;;
27303;SDS011;14791;52.392;13.092;2023-05-02T09:03:20;2.90;;;2.80;;
27303;SDS011;14791;52.392;13.092;2023-05-02T09:06:08;2.85;;;2.75;;
27303;SDS011;14791;52.392;13.092;2023-05-02T09:08:42;3.08;;;2.95;;
27303;SDS011;14791;52.392;13.092;2023-05-02T09:11:14;2.85;;;2.75;;
27303;SDS011;14791;52.392;13.092;2023-05-02T09:13:44;2.65;;;2.55;;
27303;SDS011;14791;52.392;13.092;2023-05-02T09:18:48;4.03;;;3.30;;
27303;SDS011;14791;52.392;13.092;2023-05-02T09:21:22;3.12;;;3.02;;
27303;SDS011;14791;52.392;13.092;2023-05-02T09:23:57;2.98;;;2.87;;
27303;SDS011;14791;52.392;13.092;2023-05-02T09:26:25;3.22;;;3.02;;
27303;SDS011;14791;52.392;13.092;2023-05-02T09:29:02;3.45;;;3.30;;
27303;SDS011;14791;52.392;13.092;2023-05-02T09:31:32;2.55;;;2.55;;
27303;SDS011;14791;52.392;13.092;2023-05-02T09:34:09;2.90;;;2.80;;
27303;SDS011;14791;52.392;13.092;2023-05-02T09:36:40;2.70;;;2.55;;
27303;SDS011;14791;52.392;13.092;2023-05-02T09:39:14;2.52;;;2.42;;
27303;SDS011;14791;52.392;13.092;2023-05-02T09:41:46;2.83;;;2.40;;
27303;SDS011;14791;52.392;13.092;2023-05-02T09:44:16;2.25;;;2.25;;
27303;SDS011;14791;52.392;13.092;2023-05-02T09:46:47;2.50;;;2.40;;
27303;SDS011;14791;52.392;13.092;2023-05-02T09:52:16;2.10;;;2.00;;
27303;SDS011;14791;52.392;13.092;2023-05-02T09:54:47;2.45;;;2.35;;
27303;SDS011;14791;52.392;13.092;2023-05-02T09:57:18;1.90;;;1.90;;
27303;SDS011;14791;52.392;13.092;2023-05-02T09:59:54;2.58;;;2.37;;
27303;SDS011;14791;52.392;13.092;2023-05-02T10:02:25;2.10;;;2.05;;
27303;SDS011;14791;52.392;13.092;2023-05-02T10:04:55;1.95;;;1.95;;
27303;SDS011;14791;52.392;13.092;2023-05-02T10:07:25;2.30;;;2.20;;
27303;SDS011;14791;52.392;13.092;2023-05-02T10:09:54;2.95;;;2.85;;
27303;SDS011;14791;52.392;13.092;2023-05-02T10:12:25;2.67;;;2.58;;
27303;SDS011;14791;52.392;13.092;2023-05-02T10:14:59;2.37;;;2.02;;
27303;SDS011;14791;52.392;13.092;2023-05-02T10:17:30;1.65;;;1.65;;
27303;SDS011;14791;52.392;13.092;2023-05-02T10:20:03;1.77;;;1.67;;
27303;SDS011;14791;52.392;13.092;2023-05-02T10:22:33;1.35;;;1.35;;
27303;SDS011;14791;52.392;13.092;2023-05-02T10:25:03;1.20;;;1.20;;
27303;SDS011;14791;52.392;13.092;2023-05-02T10:27:33;0.80;;;0.80;;
27303;SDS011;14791;52.392;13.092;2023-05-02T10:30:03;1.10;;;1.10;;
27303;SDS011;14791;52.392;13.092;2023-05-02T10:32:34;1.02;;;1.02;;
27303;SDS011;14791;52.392;13.092;2023-05-02T10:35:05;1.15;;;1.15;;
27303;SDS011;14791;52.392;13.092;2023-05-02T10:37:35;1.32;;;1.32;;
27303;SDS011;14791;52.392;13.092;2023-05-02T10:40:16;1.47;;;1.47;;
27303;SDS011;14791;52.392;13.092;2023-05-02T10:42:41;1.37;;;1.37;;
27303;SDS011;14791;52.392;13.092;2023-05-02T10:45:12;1.40;;;1.40;;
27303;SDS011;14791;52.392;13.092;2023-05-02T10:48:17;1.60;;;1.50;;
27303;SDS011;14791;52.392;13.092;2023-05-02T10:50:56;2.00;;;1.90;;
27303;SDS011;14791;52.392;13.092;2023-05-02T10:53:32;1.97;;;1.87;;
27303;SDS011;14791;52.392;13.092;2023-05-02T10:56:16;1.50;;;1.50;;
27303;SDS011;14791;52.392;13.092;2023-05-02T10:58:51;2.03;;;1.93;;
27303;SDS011;14791;52.392;13.092;2023-05-02T11:04:04;2.20;;;2.10;;
27303;SDS011;14791;52.392;13.092;2023-05-02T11:06:35;2.80;;;2.23;;
27303;SDS011;14791;52.392;13.092;2023-05-02T11:11:47;2.67;;;2.57;;
27303;SDS011;14791;52.392;13.092;2023-05-02T11:22:30;2.80;;;2.67;;
27303;SDS011;14791;52.392;13.092;2023-05-02T11:25:00;2.37;;;2.17;;
27303;SDS011;14791;52.392;13.092;2023-05-02T11:30:08;2.30;;;2.10;;
27303;SDS011;14791;52.392;13.092;2023-05-02T11:35:19;3.77;;;2.50;;
27303;SDS011;14791;52.392;13.092;2023-05-02T11:40:24;4.08;;;2.30;;
27303;SDS011;14791;52.392;13.092;2023-05-02T11:42:55;2.42;;;2.30;;
27303;SDS011;14791;52.392;13.092;2023-05-02T11:45:37;4.57;;;2.63;;
27303;SDS011;14791;52.392;13.092;2023-05-02T11:48:05;2.40;;;2.20;;
27303;SDS011;14791;52.392;13.092;2023-05-02T11:50:41;2.50;;;2.40;;
27303;SDS011;14791;52.392;13.092;2023-05-02T11:53:12;3.00;;;2.10;;
27303;SDS011;14791;52.392;13.092;2023-05-02T11:55:46;5.03;;;2.70;;
27303;SDS011;14791;52.392;13.092;2023-05-02T11:58:17;2.10;;;1.97;;
27303;SDS011;14791;52.392;13.092;2023-05-02T12:00:49;3.23;;;2.20;;
27303;SDS011;14791;52.392;13.092;2023-05-02T12:03:27;3.72;;;2.45;;
27303;SDS011;14791;52.392;13.092;2023-05-02T12:05:53;2.27;;;2.15;;
27303;SDS011;14791;52.392;13.092;2023-05-02T12:08:23;2.25;;;2.10;;
27303;SDS011;14791;52.392;13.092;2023-05-02T12:10:54;2.52;;;2.33;;
27303;SDS011;14791;52.392;13.092;2023-05-02T12:13:24;3.22;;;2.30;;
27303;SDS011;14791;52.392;13.092;2023-05-02T12:15:53;3.20;;;2.02;;
27303;SDS011;14791;52.392;13.092;2023-05-02T12:18:24;3.85;;;2.22;;
27303;SDS011;14791;52.392;13.092;2023-05-02T12:20:54;2.95;;;2.27;;
27303;SDS011;14791;52.392;13.092;2023-05-02T12:23:23;3.83;;;2.30;;
27303;SDS011;14791;52.392;13.092;2023-05-02T12:25:53;2.37;;;2.05;;
27303;SDS011;14791;52.392;13.092;2023-05-02T12:28:22;2.12;;;2.02;;
27303;SDS011;14791;52.392;13.092;2023-05-02T12:30:51;1.95;;;1.85;;
27303;SDS011;14791;52.392;13.092;2023-05-02T12:33:20;2.27;;;1.90;;
27303;SDS011;14791;52.392;13.092;2023-05-02T12:35:49;3.72;;;2.45;;
27303;SDS011;14791;52.392;13.092;2023-05-02T12:38:19;2.20;;;2.02;;
27303;SDS011;14791;52.392;13.092;2023-05-02T12:40:50;3.05;;;2.15;;
27303;SDS011;14791;52.392;13.092;2023-05-02T12:43:22;2.60;;;1.60;;
27303;SDS011;14791;52.392;13.092;2023-05-02T12:45:57;4.75;;;2.05;;
27303;SDS011;14791;52.392;13.092;2023-05-02T12:48:37;2.33;;;2.15;;
27303;SDS011;14791;52.392;13.092;2023-05-02T12:51:15;3.10;;;1.87;;
27303;SDS011;14791;52.392;13.092;2023-05-02T12:53:39;2.10;;;2.00;;
27303;SDS011;14791;52.392;13.092;2023-05-02T12:56:12;1.95;;;1.82;;
27303;SDS011;14791;52.392;13.092;2023-05-02T12:58:48;4.05;;;2.35;;
27303;SDS011;14791;52.392;13.092;2023-05-02T13:01:14;2.00;;;1.90;;
27303;SDS011;14791;52.392;13.092;2023-05-02T13:03:43;2.45;;;2.25;;
27303;SDS011;14791;52.392;13.092;2023-05-02T13:06:12;2.02;;;1.92;;
27303;SDS011;14791;52.392;13.092;2023-05-02T13:08:41;2.00;;;1.90;;
27303;SDS011;14791;52.392;13.092;2023-05-02T13:11:10;2.90;;;2.17;;
27303;SDS011;14791;52.392;13.092;2023-05-02T13:13:40;2.92;;;1.90;;
27303;SDS011;14791;52.392;13.092;2023-05-02T13:16:09;1.95;;;1.85;;
27303;SDS011;14791;52.392;13.092;2023-05-02T13:18:38;2.27;;;2.08;;
27303;SDS011;14791;52.392;13.092;2023-05-02T13:21:07;2.42;;;1.77;;
27303;SDS011;14791;52.392;13.092;2023-05-02T13:23:36;1.80;;;1.70;;
27303;SDS011;14791;52.392;13.092;2023-05-02T13:26:05;2.30;;;2.20;;
27303;SDS011;14791;52.392;13.092;2023-05-02T13:28:35;2.22;;;2.08;;
27303;SDS011;14791;52.392;13.092;2023-05-02T13:31:03;2.42;;;2.20;;
27303;SDS011;14791;52.392;13.092;2023-05-02T13:33:32;3.20;;;2.45;;
27303;SDS011;14791;52.392;13.092;2023-05-02T13:36:01;2.42;;;2.22;;
27303;SDS011;14791;52.392;13.092;2023-05-02T13:38:30;2.72;;;2.52;;
27303;SDS011;14791;52.392;13.092;2023-05-02T13:41:00;2.37;;;2.17;;
27303;SDS011;14791;52.392;13.092;2023-05-02T13:43:29;3.17;;;2.30;;
27303;SDS011;14791;52.392;13.092;2023-05-02T13:45:58;2.37;;;2.17;;
27303;SDS011;14791;52.392;13.092;2023-05-02T13:48:27;2.65;;;2.15;;
27303;SDS011;14791;52.392;13.092;2023-05-02T13:50:56;2.67;;;2.30;;
27303;SDS011;14791;52.392;13.092;2023-05-02T13:53:25;2.80;;;2.12;;
27303;SDS011;14791;52.392;13.092;2023-05-02T13:55:54;2.10;;;2.00;;
27303;SDS011;14791;52.392;13.092;2023-05-02T13:58:22;2.40;;;2.20;;
27303;SDS011;14791;52.392;13.092;2023-05-02T14:00:51;1.87;;;1.77;;
27303;SDS011;14791;52.392;13.092;2023-05-02T14:03:20;2.58;;;2.10;;
27303;SDS011;14791;52.392;13.092;2023-05-02T14:05:49;2.60;;;2.22;;
27303;SDS011;14791;52.392;13.092;2023-05-02T14:08:18;3.52;;;2.10;;
27303;SDS011;14791;52.392;13.092;2023-05-02T14:10:47;2.20;;;2.05;;
27303;SDS011;14791;52.392;13.092;2023-05-02T14:13:16;2.75;;;2.20;;
27303;SDS011;14791;52.392;13.092;2023-05-02T14:15:45;2.33;;;2.12;;
27303;SDS011;14791;52.392;13.092;2023-05-02T14:18:14;4.22;;;2.40;;
27303;SDS011;14791;52.392;13.092;2023-05-02T14:20:43;2.15;;;2.05;;
27303;SDS011;14791;52.392;13.092;2023-05-02T14:23:12;2.10;;;2.00;;
27303;SDS011;14791;52.392;13.092;2023-05-02T14:25:41;3.55;;;1.98;;
27303;SDS011;14791;52.392;13.092;2023-05-02T14:28:10;2.42;;;2.22;;
27303;SDS011;14791;52.392;13.092;2023-05-02T14:30:39;3.08;;;1.90;;
27303;SDS011;14791;52.392;13.092;2023-05-02T14:33:08;2.92;;;2.30;;
27303;SDS011;14791;52.392;13.092;2023-05-02T14:35:36;2.10;;;2.00;;
27303;SDS011;14791;52.392;13.092;2023-05-02T14:38:05;1.98;;;1.87;;
27303;SDS011;14791;52.392;13.092;2023-05-02T14:40:34;2.65;;;2.00;;
27303;SDS011;14791;52.392;13.092;2023-05-02T14:43:04;3.12;;;2.15;;
27303;SDS011;14791;52.392;13.092;2023-05-02T14:45:34;2.37;;;2.27;;
27303;SDS011;14791;52.392;13.092;2023-05-02T14:48:03;2.20;;;2.10;;
27303;SDS011;14791;52.392;13.092;2023-05-02T14:50:35;2.90;;;2.08;;
27303;SDS011;14791;52.392;13.092;2023-05-02T14:53:05;2.08;;;1.98;;
27303;SDS011;14791;52.392;13.092;2023-05-02T14:55:35;2.25;;;2.15;;
27303;SDS011;14791;52.392;13.092;2023-05-02T14:58:05;2.62;;;2.42;;
27303;SDS011;14791;52.392;13.092;2023-05-02T15:00:36;2.37;;;2.10;;
27303;SDS011;14791;52.392;13.092;2023-05-02T15:03:05;2.17;;;2.08;;
27303;SDS011;14791;52.392;13.092;2023-05-02T15:05:35;2.55;;;2.45;;
27303;SDS011;14791;52.392;13.092;2023-05-02T15:08:04;2.45;;;2.33;;
27303;SDS011;14791;52.392;13.092;2023-05-02T15:10:36;2.33;;;2.22;;
27303;SDS011;14791;52.392;13.092;2023-05-02T15:13:06;1.87;;;1.82;;
27303;SDS011;14791;52.392;13.092;2023-05-02T15:15:35;2.10;;;2.00;;
27303;SDS011;14791;52.392;13.092;2023-05-02T15:18:04;3.05;;;2.10;;
27303;SDS011;14791;52.392;13.092;2023-05-02T15:20:33;2.40;;;2.08;;
27303;SDS011;14791;52.392;13.092;2023-05-02T15:23:02;2.10;;;2.00;;
27303;SDS011;14791;52.392;13.092;2023-05-02T15:25:31;2.30;;;2.20;;
27303;SDS011;14791;52.392;13.092;2023-05-02T15:28:00;2.00;;;1.92;;
27303;SDS011;14791;52.392;13.092;2023-05-02T15:30:29;2.47;;;1.92;;
27303;SDS011;14791;52.392;13.092;2023-05-02T15:32:58;2.05;;;1.95;;
27303;SDS011;14791;52.392;13.092;2023-05-02T15:35:27;2.12;;;2.02;;